createdAt,value
2018-01-06T12:11:44.572Z,96909.93
2018-01-06T12:12:53.396Z,97008.48
2018-01-06T12:14:02.985Z,97048.38
2018-01-06T12:18:16.607Z,97011.58
2018-01-06T12:21:30.467Z,97022.21
2018-01-06T12:22:40.855Z,97023.84
2018-01-06T12:23:50.260Z,96951.59
2018-01-06T12:25:00.454Z,96992.77
2018-01-06T12:26:09.801Z,97023.18
2018-01-06T12:27:20.529Z,96971.07
2018-01-06T12:28:30.010Z,97019.70
2018-01-06T12:29:40.097Z,97022.83
2018-01-06T12:30:49.982Z,97023.72
2018-01-06T12:31:59.266Z,97019.82
2018-01-06T12:33:11.303Z,97020.70
2018-01-06T12:34:24.259Z,97021.11
2018-01-06T12:35:33.321Z,97022.89
2018-01-06T12:36:42.872Z,96943.20
2018-01-06T12:37:51.552Z,97027.67
2018-01-06T12:39:00.929Z,97025.92
2018-01-06T12:40:11.213Z,97025.55
2018-01-06T12:41:22.232Z,97023.89
2018-01-06T12:42:35.052Z,97021.22
2018-01-06T12:43:44.858Z,97026.87
2018-01-06T12:44:54.108Z,96825.06
2018-01-06T12:46:03.198Z,97028.56
2018-01-06T12:47:16.213Z,96988.05
2018-01-06T12:48:26.957Z,97029.93
2018-01-06T12:49:37.332Z,97032.62
2018-01-06T12:50:46.440Z,97030.34
2018-01-06T12:51:53.976Z,97016.36
2018-01-06T12:53:02.817Z,97035.09
2018-01-06T12:54:09.126Z,97007.69
2018-01-06T12:55:15.606Z,96809.60
2018-01-06T12:56:21.932Z,97031.20
2018-01-06T12:57:27.722Z,97025.41
2018-01-06T12:58:32.835Z,97028.50
2018-01-06T12:59:38.355Z,96938.83
2018-01-06T13:00:43.474Z,97029.81
2018-01-06T13:01:48.252Z,97032.41
2018-01-06T13:02:53.375Z,96935.81
2018-01-06T13:03:58.667Z,96994.05
2018-01-06T13:05:04.422Z,97034.52
2018-01-06T13:06:09.502Z,96893.27
2018-01-06T13:07:14.484Z,96901.02
2018-01-06T13:08:23.006Z,97037.33
2018-01-06T13:09:28.391Z,97038.67
2018-01-06T13:10:38.921Z,97036.04
2018-01-06T13:11:48.631Z,97035.61
2018-01-06T13:12:59.497Z,96889.56
2018-01-06T13:14:09.983Z,97045.16
2018-01-06T13:15:18.763Z,96904.55
2018-01-06T13:16:29.642Z,96953.29
2018-01-06T13:17:39.776Z,97043.97
2018-01-06T13:18:51.633Z,96928.64
2018-01-06T13:20:02.223Z,97050.53
2018-01-06T13:21:14.016Z,97050.02
2018-01-06T13:22:24.678Z,96850.98
2018-01-06T13:23:33.753Z,97055.23
2018-01-06T13:24:47.224Z,97059.22
2018-01-06T13:26:00.871Z,97053.52
2018-01-06T13:27:12.008Z,97056.55
2018-01-06T13:28:22.413Z,97054.34
2018-01-06T13:30:46.238Z,97057.98
2018-01-06T13:31:55.692Z,97054.38
2018-01-06T13:33:06.719Z,97059.19
2018-01-06T13:35:32.338Z,97064.48
2018-01-06T13:36:43.027Z,97064.17
2018-01-06T13:37:53.822Z,97041.52
2018-01-06T13:39:04.301Z,97002.18
2018-01-06T13:40:18.443Z,97081.16
2018-01-06T13:41:28.447Z,97085.12
2018-01-06T13:42:37.640Z,96827.39
2018-01-06T13:43:47.406Z,97048.46
2018-01-06T13:44:57.080Z,97084.66
2018-01-06T13:46:06.140Z,97089.87
2018-01-06T13:47:16.288Z,97095.20
2018-01-06T13:48:28.592Z,97097.44
2018-01-06T13:49:37.925Z,97099.16
2018-01-06T13:50:45.845Z,97032.69
2018-01-06T13:51:54.140Z,97107.81
2018-01-06T13:53:02.424Z,97107.92
2018-01-06T13:54:11.443Z,97115.89
2018-01-06T13:55:17.923Z,97126.84
2018-01-06T13:56:25.864Z,97122.50
2018-01-06T13:57:33.575Z,97007.72
2018-01-06T13:58:43.107Z,97131.97
2018-01-06T13:59:54.010Z,97133.31
2018-01-06T14:01:01.695Z,97135.52
2018-01-06T14:02:11.769Z,97137.84
2018-01-06T14:03:22.100Z,97134.31
2018-01-06T14:04:30.332Z,97047.12
2018-01-06T14:05:39.698Z,97031.80
2018-01-06T14:06:48.366Z,97138.27
2018-01-06T14:07:57.655Z,96908.97
2018-01-06T14:09:07.572Z,97146.55
2018-01-06T14:10:16.939Z,97084.98
2018-01-06T14:14:37.630Z,97147.86
2018-01-06T14:15:44.037Z,96944.37
2018-01-06T14:16:50.373Z,97149.59
2018-01-06T14:17:56.136Z,97151.42
2018-01-06T14:19:03.012Z,97147.97
2018-01-06T14:20:11.904Z,97166.86
2018-01-06T14:21:22.351Z,97094.77
2018-01-06T14:22:32.301Z,96972.42
2018-01-06T14:23:42.805Z,97123.25
2018-01-06T14:25:03.299Z,97144.85
2018-01-06T14:26:16.104Z,97062.17
2018-01-06T14:27:26.130Z,97142.56
2018-01-06T14:28:38.562Z,97148.70
2018-01-06T14:29:43.588Z,97007.95
2018-01-06T14:30:49.139Z,97160.45
2018-01-06T14:31:54.326Z,97161.42
2018-01-06T14:33:00.008Z,97027.22
2018-01-06T14:34:06.961Z,97142.41
2018-01-06T14:35:12.733Z,97161.40
2018-01-06T14:36:17.539Z,97160.97
2018-01-06T14:37:22.936Z,97060.95
2018-01-06T14:38:27.882Z,97169.33
2018-01-06T14:39:33.729Z,97169.33
2018-01-06T14:40:39.160Z,96881.66
2018-01-06T14:41:44.167Z,97167.69
2018-01-06T14:42:50.673Z,97136.66
2018-01-06T14:43:55.952Z,97147.20
2018-01-06T14:45:02.090Z,97172.13
2018-01-06T14:46:08.217Z,96943.13
2018-01-06T14:47:13.759Z,97123.28
2018-01-06T14:48:18.732Z,97153.42
2018-01-06T14:49:26.281Z,96922.14
2018-01-06T14:50:32.790Z,97185.58
2018-01-06T14:51:45.774Z,97161.28
2018-01-06T14:52:55.828Z,97190.85
2018-01-06T14:54:07.760Z,97190.42
2018-01-06T14:55:16.137Z,96968.72
2018-01-06T14:56:21.549Z,97181.22
2018-01-06T14:57:30.717Z,97179.13
2018-01-06T14:58:39.043Z,97194.74
2018-01-06T14:59:48.893Z,97185.14
2018-01-06T15:00:56.829Z,97182.51
2018-01-06T15:02:09.478Z,97190.95
2018-01-06T15:03:16.655Z,96905.92
2018-01-06T15:04:27.943Z,97182.69
2018-01-06T15:05:39.190Z,97181.37
2018-01-06T15:06:49.578Z,97185.28
2018-01-06T15:08:01.757Z,97184.41
2018-01-06T15:09:10.385Z,97134.86
2018-01-06T15:10:21.590Z,97185.30
2018-01-06T15:11:32.560Z,97184.84
2018-01-06T15:12:42.750Z,97193.08
2018-01-06T15:13:55.808Z,97190.90
2018-01-06T15:15:03.577Z,97192.60
2018-01-06T15:16:10.007Z,97091.43
2018-01-06T15:17:16.553Z,97189.98
2018-01-06T15:18:21.380Z,97199.27
2018-01-06T15:19:26.530Z,97157.13
2018-01-06T15:20:32.551Z,97055.47
2018-01-06T15:21:38.696Z,97205.59
2018-01-06T15:22:47.078Z,97198.45
2018-01-06T15:23:54.743Z,97198.44
2018-01-06T15:25:03.494Z,97192.64
2018-01-06T15:26:10.793Z,97134.19
2018-01-06T15:27:20.878Z,97061.02
2018-01-06T15:28:28.834Z,97199.75
2018-01-06T15:29:37.455Z,97220.30
2018-01-06T15:30:46.444Z,97203.70
2018-01-06T15:31:55.517Z,97181.95
2018-01-06T15:33:05.053Z,96953.11
2018-01-06T15:34:14.401Z,97203.27
2018-01-06T15:35:25.908Z,97199.32
2018-01-06T15:36:34.858Z,97201.44
2018-01-06T15:37:41.233Z,97078.48
2018-01-06T15:38:47.276Z,97203.63
2018-01-06T15:39:54.322Z,97108.62
2018-01-06T15:41:00.179Z,97198.45
2018-01-06T15:42:06.624Z,97199.80
2018-01-06T15:43:13.740Z,97162.02
2018-01-06T15:44:20.248Z,97193.99
2018-01-06T15:45:25.363Z,97198.78
2018-01-06T15:46:31.048Z,97204.51
2018-01-06T15:47:36.734Z,96963.91
2018-01-06T15:48:41.854Z,97023.59
2018-01-06T15:49:47.005Z,97170.20
2018-01-06T15:50:52.326Z,97088.22
2018-01-06T15:51:57.776Z,97034.56
2018-01-06T15:53:05.196Z,97201.53
2018-01-06T15:54:12.912Z,97120.86
2018-01-06T15:55:21.172Z,97198.89
2018-01-06T15:56:30.986Z,97027.34
2018-01-06T15:57:41.379Z,97192.75
2018-01-06T15:58:52.644Z,97191.36
2018-01-06T16:00:04.022Z,97188.33
2018-01-06T16:01:08.985Z,97188.78
2018-01-06T16:02:14.439Z,97183.42
2018-01-06T16:03:19.294Z,97189.98
2018-01-06T16:04:24.178Z,97141.31
2018-01-06T16:05:29.366Z,97185.25
2018-01-06T16:06:34.277Z,97044.60
2018-01-06T16:07:39.294Z,96915.29
2018-01-06T16:08:44.448Z,97179.04
2018-01-06T16:09:49.945Z,97152.78
2018-01-06T16:10:56.649Z,97182.11
2018-01-06T16:12:01.505Z,97068.80
2018-01-06T16:13:07.862Z,97184.73
2018-01-06T16:14:12.822Z,97182.11
2018-01-06T16:15:18.433Z,97089.80
2018-01-06T16:16:25.057Z,97180.77
2018-01-06T16:17:32.395Z,97178.12
2018-01-06T16:18:38.394Z,97173.63
2018-01-06T16:19:46.632Z,97176.46
2018-01-06T16:20:56.996Z,97186.06
2018-01-06T16:22:06.247Z,97187.40
2018-01-06T16:23:18.390Z,97182.11
2018-01-06T16:24:25.066Z,97069.05
2018-01-06T16:25:34.747Z,97189.21
2018-01-06T16:26:42.681Z,97162.62
2018-01-06T16:27:50.091Z,97197.55
2018-01-06T16:28:59.481Z,97197.95
2018-01-06T16:30:08.803Z,97204.14
2018-01-06T16:31:15.987Z,97169.41
2018-01-06T16:32:24.630Z,97197.86
2018-01-06T16:33:31.538Z,97123.52
2018-01-06T16:34:36.740Z,97134.58
2018-01-06T16:35:45.449Z,97203.70
2018-01-06T16:36:56.131Z,97163.91
2018-01-06T16:38:03.106Z,97096.74
2018-01-06T16:39:10.472Z,97121.66
2018-01-06T16:40:21.013Z,97146.43
2018-01-06T16:41:27.867Z,97214.58
2018-01-06T16:42:36.440Z,97217.64
2018-01-06T16:43:46.294Z,97218.98
2018-01-06T16:44:56.129Z,97223.83
2018-01-06T16:46:07.065Z,97227.86
2018-01-06T16:47:18.058Z,97227.94
2018-01-06T16:48:27.532Z,97234.05
2018-01-06T16:49:37.083Z,97230.98
2018-01-06T16:50:47.855Z,97234.05
2018-01-06T16:51:57.730Z,96981.88
2018-01-06T16:53:11.333Z,97231.30
2018-01-06T16:54:22.495Z,97231.66
2018-01-06T16:55:32.337Z,97230.84
2018-01-06T16:56:42.734Z,97115.91
2018-01-06T16:57:56.211Z,97237.48
2018-01-06T16:59:06.640Z,97241.39
2018-01-06T17:00:17.258Z,97240.08
2018-01-06T17:01:26.622Z,97238.53
2018-01-06T17:02:37.366Z,97248.11
2018-01-06T17:03:46.815Z,97245.88
2018-01-06T17:04:55.384Z,97251.61
2018-01-06T17:06:03.016Z,97255.99
2018-01-06T17:07:08.190Z,97253.25
2018-01-06T17:08:15.423Z,97259.95
2018-01-06T17:09:22.810Z,97077.17
2018-01-06T17:10:29.510Z,97263.34
2018-01-06T17:11:37.153Z,97267.23
2018-01-06T17:12:44.922Z,97268.31
2018-01-06T17:13:51.788Z,97268.20
2018-01-06T17:15:01.888Z,97276.52
2018-01-06T17:16:11.153Z,97273.89
2018-01-06T17:17:19.198Z,97277.41
2018-01-06T17:18:28.265Z,97277.41
2018-01-06T17:19:38.562Z,97279.16
2018-01-06T17:20:46.760Z,97283.56
2018-01-06T17:21:53.533Z,97277.78
2018-01-06T17:23:01.542Z,97284.43
2018-01-06T17:24:07.278Z,97282.27
2018-01-06T17:25:12.620Z,97275.30
2018-01-06T17:26:18.296Z,97156.72
2018-01-06T17:27:23.722Z,97280.06
2018-01-06T17:28:28.508Z,97064.46
2018-01-06T17:29:33.852Z,97282.70
2018-01-06T17:30:38.766Z,97286.18
2018-01-06T17:31:44.526Z,97292.34
2018-01-06T17:32:49.782Z,97298.77
2018-01-06T17:33:54.924Z,97014.41
2018-01-06T17:35:01.517Z,97215.84
2018-01-06T17:36:07.013Z,97306.58
2018-01-06T17:37:14.062Z,97059.42
2018-01-06T17:38:19.854Z,97307.36
2018-01-06T17:39:29.051Z,97311.52
2018-01-06T17:40:36.137Z,97286.13
2018-01-06T17:41:42.544Z,97315.70
2018-01-06T17:42:49.425Z,97316.54
2018-01-06T17:43:54.399Z,97045.19
2018-01-06T17:45:00.785Z,97316.89
2018-01-06T17:46:05.616Z,97322.59
2018-01-06T17:47:10.696Z,97230.95
2018-01-06T17:48:16.186Z,97337.09
2018-01-06T17:49:21.543Z,97322.59
2018-01-06T17:50:29.226Z,97329.14
2018-01-06T17:51:34.849Z,97200.98
2018-01-06T17:52:39.771Z,97330.41
2018-01-06T17:53:45.806Z,97335.57
2018-01-06T17:54:51.912Z,97197.03
2018-01-06T17:55:57.180Z,97266.13
2018-01-06T17:57:02.962Z,97333.55
2018-01-06T17:58:08.638Z,97335.73
2018-01-06T17:59:14.308Z,97345.35
2018-01-06T18:00:20.619Z,97336.54
2018-01-06T18:01:26.093Z,97334.58
2018-01-06T18:02:32.001Z,97345.30
2018-01-06T18:03:42.523Z,97343.98
2018-01-06T18:04:50.056Z,97347.52
2018-01-06T18:05:55.541Z,97347.52
2018-01-06T18:07:02.015Z,97349.72
2018-01-06T18:08:07.900Z,97265.40
2018-01-06T18:09:13.954Z,97351.47
2018-01-06T18:10:19.591Z,97096.17
2018-01-06T18:11:27.602Z,97355.34
2018-01-06T18:12:33.874Z,97357.98
2018-01-06T18:13:38.873Z,97356.77
2018-01-06T18:14:44.512Z,97361.68
2018-01-06T18:15:50.642Z,97358.94
2018-01-06T18:17:00.846Z,97356.38
2018-01-06T18:18:10.953Z,97222.78
2018-01-06T18:19:17.824Z,97362.92
2018-01-06T18:20:24.952Z,97359.93
2018-01-06T18:21:30.932Z,97359.05
2018-01-06T18:22:38.356Z,97356.41
2018-01-06T18:23:49.275Z,97361.14
2018-01-06T18:24:55.114Z,97357.63
2018-01-06T18:26:00.775Z,97322.97
2018-01-06T18:27:06.003Z,97359.38
2018-01-06T18:28:10.997Z,97358.97
2018-01-06T18:29:16.390Z,97361.68
2018-01-06T18:30:22.928Z,97363.05
2018-01-06T18:31:28.365Z,97366.05
2018-01-06T18:32:35.122Z,97363.86
2018-01-06T18:33:45.710Z,97372.22
2018-01-06T18:34:51.922Z,97322.47
2018-01-06T18:35:57.912Z,97370.45
2018-01-06T18:37:04.715Z,97235.39
2018-01-06T18:38:12.280Z,97374.78
2018-01-06T18:39:18.938Z,97327.69
2018-01-06T18:40:24.026Z,97376.05
2018-01-06T18:41:29.906Z,97374.76
2018-01-06T18:42:37.191Z,97290.40
2018-01-06T18:43:45.337Z,97374.76
2018-01-06T18:44:51.373Z,97383.57
2018-01-06T18:45:58.073Z,97389.69
2018-01-06T18:47:04.905Z,97385.30
2018-01-06T18:48:09.825Z,97386.14
2018-01-06T18:49:16.972Z,97373.57
2018-01-06T18:50:23.004Z,97390.59
2018-01-06T18:51:28.954Z,97392.32
2018-01-06T18:52:35.623Z,97392.40
2018-01-06T18:53:41.384Z,97397.61
2018-01-06T18:54:47.549Z,97398.07
2018-01-06T18:55:54.102Z,97399.88
2018-01-06T18:57:01.788Z,97403.85
2018-01-06T18:58:10.283Z,97405.09
2018-01-06T18:59:17.548Z,97162.39
2018-01-06T19:00:25.888Z,97409.91
2018-01-06T19:01:35.173Z,97408.16
2018-01-06T19:02:43.625Z,97376.56
2018-01-06T19:03:50.362Z,97417.44
2018-01-06T19:04:55.495Z,97378.87
2018-01-06T19:06:01.490Z,97394.85
2018-01-06T19:07:07.703Z,97366.82
2018-01-06T19:08:13.558Z,97406.80
2018-01-06T19:09:21.231Z,97413.44
2018-01-06T19:10:27.088Z,97401.48
2018-01-06T19:11:32.065Z,97428.12
2018-01-06T19:12:38.221Z,97395.34
2018-01-06T19:13:43.938Z,97420.14
2018-01-06T19:14:49.007Z,97387.30
2018-01-06T19:15:54.115Z,97416.07
2018-01-06T19:17:00.431Z,97422.66
2018-01-06T19:18:05.752Z,97404.42
2018-01-06T19:19:10.808Z,97305.53
2018-01-06T19:20:15.973Z,97435.14
2018-01-06T19:21:21.803Z,97440.42
2018-01-06T19:22:30.639Z,97437.78
2018-01-06T19:23:41.478Z,97446.98
2018-01-06T19:24:47.675Z,97394.63
2018-01-06T19:25:55.974Z,97440.13
2018-01-06T19:27:05.180Z,97457.02
2018-01-06T19:28:14.734Z,97325.17
2018-01-06T19:29:23.274Z,97427.79
2018-01-06T19:30:35.842Z,97455.63
2018-01-06T19:31:48.233Z,97459.67
2018-01-06T19:32:55.565Z,97385.68
2018-01-06T19:34:04.328Z,97297.61
2018-01-06T19:35:13.499Z,97388.73
2018-01-06T19:36:23.763Z,97464.52
2018-01-06T19:37:33.191Z,97432.56
2018-01-06T19:38:47.136Z,97459.98
2018-01-06T19:39:55.695Z,97473.34
2018-01-06T19:41:07.482Z,97476.00
2018-01-06T19:42:17.408Z,97451.98
2018-01-06T19:43:30.668Z,97442.65
2018-01-06T19:44:42.790Z,97467.08
2018-01-06T19:45:53.174Z,97461.20
2018-01-06T19:47:02.639Z,97459.79
2018-01-06T19:48:12.803Z,97469.95
2018-01-06T19:49:25.451Z,97331.82
2018-01-06T19:50:36.579Z,97483.23
2018-01-06T19:51:47.537Z,97493.58
2018-01-06T19:52:58.357Z,97497.97
2018-01-06T19:54:12.293Z,97483.30
2018-01-06T19:55:24.687Z,97491.73
2018-01-06T19:56:37.365Z,97496.58
2018-01-06T19:57:50.342Z,97486.84
2018-01-06T19:59:01.867Z,97505.33
2018-01-06T20:00:13.666Z,97503.81
2018-01-06T20:01:22.776Z,97401.92
2018-01-06T20:02:34.050Z,97525.63
2018-01-06T20:03:45.611Z,97333.49
2018-01-06T20:04:57.261Z,97502.25
2018-01-06T20:06:07.061Z,97517.73
2018-01-06T20:07:17.918Z,97503.59
2018-01-06T20:08:28.493Z,97442.09
2018-01-06T20:09:41.966Z,97474.59
2018-01-06T20:10:50.212Z,97357.81
2018-01-06T20:12:00.668Z,97528.75
2018-01-06T20:13:08.365Z,97528.28
2018-01-06T20:14:16.774Z,97534.41
2018-01-06T20:15:25.765Z,97516.67
2018-01-06T20:16:37.491Z,97492.67
2018-01-06T20:17:47.900Z,97510.36
2018-01-06T20:18:58.346Z,97519.27
2018-01-06T20:20:11.767Z,97533.13
2018-01-06T20:21:22.181Z,97522.83
2018-01-06T20:22:35.489Z,97524.01
2018-01-06T20:23:50.326Z,97409.03
2018-01-06T20:25:03.529Z,97543.59
2018-01-06T20:26:14.849Z,97498.64
2018-01-06T20:27:23.587Z,97550.25
2018-01-06T20:28:34.620Z,97518.61
2018-01-06T20:29:45.166Z,97470.88
2018-01-06T20:30:56.884Z,97564.28
2018-01-06T20:32:10.265Z,97463.81
2018-01-06T20:33:20.537Z,97560.80
2018-01-06T20:34:34.610Z,97548.37
2018-01-06T20:35:44.910Z,97561.59
2018-01-06T20:36:57.784Z,97557.30
2018-01-06T20:38:09.055Z,97526.60
2018-01-06T20:39:18.591Z,97560.89
2018-01-06T20:40:26.512Z,97561.66
2018-01-06T20:41:35.010Z,97562.91
2018-01-06T20:42:46.126Z,97552.73
2018-01-06T20:43:54.502Z,97548.82
2018-01-06T20:45:03.999Z,97559.06
2018-01-06T20:46:11.380Z,97563.41
2018-01-06T20:47:19.405Z,97561.25
2018-01-06T20:48:28.622Z,97430.04
2018-01-06T20:49:35.954Z,97540.34
2018-01-06T20:50:43.405Z,97557.61
2018-01-06T20:51:51.124Z,97558.05
2018-01-06T20:53:00.081Z,97556.73
2018-01-06T20:54:06.908Z,97489.33
2018-01-06T20:55:15.014Z,97530.10
2018-01-06T20:56:24.557Z,97564.18
2018-01-06T20:57:30.444Z,97544.75
2018-01-06T20:58:37.595Z,97537.50
2018-01-06T20:59:43.261Z,97561.47
2018-01-06T21:00:49.221Z,97573.95
2018-01-06T21:01:55.329Z,97565.42
2018-01-06T21:03:00.953Z,97547.05
2018-01-06T21:04:07.730Z,97402.44
2018-01-06T21:05:13.225Z,97572.06
2018-01-06T21:06:19.108Z,97576.06
2018-01-06T21:07:24.971Z,97523.84
2018-01-06T21:08:31.040Z,97534.51
2018-01-06T21:09:36.336Z,97578.92
2018-01-06T21:10:41.274Z,97570.36
2018-01-06T21:11:46.431Z,97593.38
2018-01-06T21:12:51.379Z,97546.30
2018-01-06T21:13:56.744Z,97582.33
2018-01-06T21:15:01.503Z,97582.73
2018-01-06T21:16:06.717Z,97448.52
2018-01-06T21:17:12.093Z,97589.77
2018-01-06T21:18:18.254Z,97588.02
2018-01-06T21:19:25.004Z,97480.63
2018-01-06T21:20:30.113Z,97536.50
2018-01-06T21:21:34.926Z,97596.45
2018-01-06T21:22:39.927Z,97487.08
2018-01-06T21:23:45.825Z,97597.70
2018-01-06T21:24:51.223Z,97579.13
2018-01-06T21:25:56.527Z,97563.10
2018-01-06T21:27:02.078Z,97488.56
2018-01-06T21:28:11.092Z,97432.25
2018-01-06T21:29:21.318Z,97593.60
2018-01-06T21:30:31.382Z,97608.71
2018-01-06T21:31:41.406Z,97613.05
2018-01-06T21:32:49.725Z,97505.61
2018-01-06T21:33:59.544Z,97608.31
2018-01-06T21:35:09.709Z,97607.39
2018-01-06T21:36:18.597Z,97609.63
2018-01-06T21:37:27.431Z,97379.37
2018-01-06T21:38:36.866Z,97605.63
2018-01-06T21:39:48.327Z,97611.34
2018-01-06T21:40:57.911Z,97601.53
2018-01-06T21:42:07.881Z,97565.89
2018-01-06T21:43:17.027Z,97592.59
2018-01-06T21:44:27.009Z,97609.84
2018-01-06T21:45:36.528Z,97583.68
2018-01-06T21:46:45.101Z,97592.16
2018-01-06T21:47:54.923Z,97592.61
2018-01-06T21:49:05.219Z,97611.66
2018-01-06T21:50:13.269Z,97597.09
2018-01-06T21:51:20.030Z,97621.00
2018-01-06T21:52:29.920Z,97609.44
2018-01-06T21:53:36.192Z,97583.03
2018-01-06T21:54:42.525Z,97610.73
2018-01-06T21:55:53.466Z,97613.39
2018-01-06T21:57:01.957Z,97627.14
2018-01-06T21:58:10.199Z,97624.52
2018-01-06T21:59:19.028Z,97499.46
2018-01-06T22:00:27.106Z,97627.23
2018-01-06T22:01:35.079Z,97634.16
2018-01-06T22:02:43.644Z,97646.13
2018-01-06T22:03:49.635Z,97630.06
2018-01-06T22:04:55.844Z,97620.24
2018-01-06T22:06:02.033Z,97613.17
2018-01-06T22:07:09.572Z,97607.20
2018-01-06T22:08:15.823Z,97643.89
2018-01-06T22:09:22.828Z,97630.53
2018-01-06T22:10:29.764Z,97637.06
2018-01-06T22:11:37.115Z,97506.31
2018-01-06T22:12:42.308Z,97650.86
2018-01-06T22:13:47.385Z,97489.42
2018-01-06T22:14:53.131Z,97600.02
2018-01-06T22:15:58.680Z,97663.17
2018-01-06T22:17:04.335Z,97541.52
2018-01-06T22:18:10.556Z,97671.59
2018-01-06T22:19:19.680Z,97672.45
2018-01-06T22:20:28.843Z,97660.48
2018-01-06T22:21:40.571Z,97671.60
2018-01-06T22:22:49.923Z,97663.09
2018-01-06T22:23:57.663Z,97652.67
2018-01-06T22:25:04.704Z,97653.76
2018-01-06T22:26:10.507Z,97687.00
2018-01-06T22:27:17.324Z,97538.77
2018-01-06T22:28:23.794Z,97681.37
2018-01-06T22:29:30.189Z,97655.06
2018-01-06T22:30:35.869Z,97663.09
2018-01-06T22:31:41.060Z,97685.23
2018-01-06T22:32:46.241Z,97680.38
2018-01-06T22:33:51.773Z,97652.87
2018-01-06T22:34:57.782Z,97678.05
2018-01-06T22:36:03.180Z,97671.81
2018-01-06T22:37:08.157Z,97654.11
2018-01-06T22:38:13.607Z,97682.95
2018-01-06T22:39:18.698Z,97648.79
2018-01-06T22:40:23.556Z,97686.12
2018-01-06T22:41:28.738Z,97692.69
2018-01-06T22:42:33.895Z,97693.13
2018-01-06T22:43:38.827Z,97714.23
2018-01-06T22:44:45.227Z,97641.55
2018-01-06T22:45:50.799Z,97697.06
2018-01-06T22:46:59.452Z,97613.77
2018-01-06T22:48:05.896Z,97691.78
2018-01-06T22:49:13.363Z,97668.94
2018-01-06T22:50:19.076Z,97681.14
2018-01-06T22:51:25.426Z,97695.83
2018-01-06T22:52:32.661Z,97689.98
2018-01-06T22:53:38.304Z,97694.89
2018-01-06T22:54:44.475Z,97701.91
2018-01-06T22:55:51.305Z,97673.11
2018-01-06T22:56:58.607Z,97583.24
2018-01-06T22:58:04.036Z,97506.77
2018-01-06T22:59:08.856Z,97585.56
2018-01-06T23:00:14.677Z,97607.72
2018-01-06T23:01:21.178Z,97679.23
2018-01-06T23:02:27.662Z,97706.37
2018-01-06T23:03:33.018Z,97706.28
2018-01-06T23:04:38.553Z,97708.92
2018-01-06T23:05:44.673Z,97694.66
2018-01-06T23:06:50.012Z,97705.78
2018-01-06T23:07:56.478Z,97706.23
2018-01-06T23:09:01.559Z,97619.36
2018-01-06T23:10:06.861Z,97679.16
2018-01-06T23:11:12.297Z,97624.08
2018-01-06T23:12:18.119Z,97711.57
2018-01-06T23:13:23.595Z,97690.58
2018-01-06T23:14:30.229Z,97711.57
2018-01-06T23:15:38.126Z,97711.11
2018-01-06T23:16:45.384Z,97715.95
2018-01-06T23:17:50.911Z,97696.92
2018-01-06T23:18:57.821Z,97713.77
2018-01-06T23:20:06.519Z,97698.97
2018-01-06T23:21:14.302Z,97718.59
2018-01-06T23:22:20.270Z,97709.69
2018-01-06T23:23:25.807Z,97715.11
2018-01-06T23:24:32.863Z,97603.20
2018-01-06T23:25:38.218Z,97717.83
2018-01-06T23:26:44.436Z,97719.95
2018-01-06T23:27:49.702Z,97707.05
2018-01-06T23:28:56.669Z,97703.59
2018-01-06T23:30:02.506Z,97691.60
2018-01-06T23:31:09.733Z,97721.79
2018-01-06T23:32:19.076Z,97722.20
2018-01-06T23:33:26.580Z,97673.64
2018-01-06T23:34:35.569Z,97724.30
2018-01-06T23:35:46.577Z,97724.86
2018-01-06T23:36:54.230Z,97700.34
2018-01-06T23:38:02.347Z,97725.11
2018-01-06T23:39:09.114Z,97713.20
2018-01-06T23:40:14.833Z,97729.57
2018-01-06T23:41:21.476Z,97645.47
2018-01-06T23:42:30.196Z,97717.59
2018-01-06T23:43:37.590Z,97707.36
2018-01-06T23:44:47.008Z,97474.17
2018-01-06T23:45:52.175Z,97696.28
2018-01-06T23:46:57.321Z,97731.41
2018-01-06T23:48:02.214Z,97732.75
2018-01-06T23:49:09.084Z,97739.33
2018-01-06T23:50:15.250Z,97724.97
2018-01-06T23:51:22.958Z,97754.73
2018-01-06T23:52:30.214Z,97705.41
2018-01-06T23:53:38.364Z,97771.78
2018-01-06T23:54:44.494Z,97713.47
2018-01-06T23:55:50.525Z,97748.11
2018-01-06T23:56:57.711Z,97770.08
2018-01-06T23:58:05.922Z,97753.37
2018-01-06T23:59:10.937Z,97715.54
